Terminal Aerodrome Forecast
Issued by NWS Pendleton, OR

Home | Current Version | Previous Version | Text Only | Print | Product List | Glossary On
Versions: 1 2 3 4 5 6 7 8 9 10 11 12 13 14 15 16
000
FTUS46 KPDT 020500
TAFPDT
TAF
KPDT 020520Z 0206/0306 16006KT P6SM SKC
     FM021700 27010KT P6SM SCT150
     FM022000 27015G25KT P6SM SCT100 SCT200
     FM030200 26020G28KT P6SM FEW060 SCT100=

USA.gov is the U.S. government's official web portal to all federal, state and local government web resources and services.